Flight Track Log - Related Links

Times and Time Zones

All times are in EDT time to prevent confusion due to time zone crossing. See the N675MC flight status page for this flight to view local times or setup timezone preferences in your user account.

Time Position Orientation Groundspeed Altitude Reporting Facility
EDT Latitude Longitude Course Direction KTS MPH feet Rate Location/Type
Sat 02:57:33 PM 33.6500 -84.3833 267° West 181 208 2,200  Level Atlanta TRACON
Sat 02:58:33 PM 33.6833 -84.3167 59° Northeast 252 290 3,900 2,200 Climbing Atlanta TRACON
Sat 02:59:33 PM 33.7333 -84.2833 29° Northeast 276 318 6,600 2,500 Climbing Atlanta TRACON
Sat 03:00:00 PM 33.7289 -84.9654 268° West  Level Estimated
Sat 03:00:33 PM 33.8000 -84.3167 337° Northwest 300 345 8,900  Level Atlanta TRACON
Sat 03:01:00 PM 33.7237 -85.1025 267° West  Level FlightAware Approximate
Sat 03:02:00 PM 33.7183 -85.2396 267° West  Level FlightAware Approximate
Sat 03:02:57 PM 33.8139 -84.5814 274° West 336 387 13,300  Level Atlanta Center
Sat 03:03:57 PM 33.7778 -84.6936 249° West 357 411 14,400 950 Climbing Atlanta Center
Sat 03:04:57 PM 33.7481 -84.7883 249° West 357 411 15,200 900 Climbing Atlanta Center
Sat 03:05:57 PM 33.7161 -84.9078 252° West 366 421 16,200 1,300 Climbing Atlanta Center
Sat 03:06:57 PM 33.6797 -85.0275 250° West 376 433 17,800 1,650 Climbing Atlanta Center
Sat 03:07:57 PM 33.6494 -85.1519 254° West 387 445 19,500 1,500 Climbing Atlanta Center
Sat 03:08:57 PM 33.6336 -85.2864 262° West 401 461 20,800 1,300 Climbing Atlanta Center
Sat 03:09:57 PM 33.6300 -85.4236 268° West 414 476 22,100 1,300 Climbing Atlanta Center
Sat 03:10:57 PM 33.6344 -85.5658 272° West 421 484 23,400 1,300 Climbing Atlanta Center
Sat 03:11:57 PM 33.6492 -85.7183 277° West 426 490 24,700 1,300 Climbing Atlanta Center
Sat 03:12:57 PM 33.6597 -85.8558 275° West 426 490 26,000 1,250 Climbing Atlanta Center
Sat 03:13:57 PM 33.6744 -85.9983 277° West 426 490 27,200 1,050 Climbing Atlanta Center
Sat 03:14:57 PM 33.6781 -86.1431 272° West 431 496 28,100 400 Climbing Atlanta Center
Sat 03:15:57 PM 33.6589 -86.2975 262° West 444 511 28,000 -50 Descending Atlanta Center
Sat 03:16:57 PM 33.6453 -86.4517 264° West 463 533 28,000  Level Atlanta Center
Sat 03:17:57 PM 33.6528 -86.6042 273° West 468 539 28,000  Level Atlanta Center
Sat 03:18:58 PM 33.6703 -86.7594 278° West 463 533 28,000  Level Atlanta Center
Sat 03:19:57 PM 33.6897 -86.9150 279° West 468 539 28,000  Level Atlanta Center
Sat 03:21:28 PM 33.7156 -87.1381 278° West 478 550 28,000  Level Memphis Center
Sat 03:22:28 PM 33.7547 -87.2867 288° West 478 550 28,000  Level Memphis Center
Sat 03:23:29 PM 33.7836 -87.4406 283° West 478 550 28,000  Level Memphis Center
Sat 03:24:28 PM 33.8208 -87.6094 285° West 473 544 28,000  Level Memphis Center
Sat 03:25:28 PM 33.8553 -87.7558 286° West 468 539 28,000  Level Memphis Center
Sat 03:26:29 PM 33.8878 -87.9100 284° West 468 539 28,000  Level Memphis Center
Sat 03:27:28 PM 33.9156 -88.0594 283° West 468 539 28,000  Level Memphis Center
Sat 03:28:28 PM 33.9389 -88.1989 281° West 473 544 28,000  Level Memphis Center
Sat 03:29:28 PM 33.9750 -88.3508 286° West 473 544 28,000  Level Memphis Center
Sat 03:30:28 PM 34.0125 -88.4953 287° West 467 537 28,000  Level Memphis Center
Sat 03:31:28 PM 34.0522 -88.6425 288° West 462 532 28,000  Level Memphis Center
Sat 03:32:28 PM 34.0878 -88.7922 286° West 462 532 28,000  Level Memphis Center
Sat 03:33:29 PM 34.1144 -88.9397 282° West 456 525 28,000  Level Memphis Center
Sat 03:34:28 PM 34.1433 -89.0897 283° West 456 525 28,000  Level Memphis Center
Sat 03:35:28 PM 34.1739 -89.2550 283° West 464 534 28,000  Level Memphis Center
Sat 03:36:28 PM 34.2044 -89.4053 284° West 469 540 28,000  Level Memphis Center
Sat 03:37:28 PM 34.2347 -89.5583 283° West 469 540 28,000  Level Memphis Center
Sat 03:38:28 PM 34.2608 -89.7114 282° West 469 540 28,000 -50 Level Memphis Center
Sat 03:39:28 PM 34.2761 -89.8669 277° West 469 540 27,900 -446 Descending Memphis Center
Sat 03:40:29 PM 34.2933 -90.0228 278° West 469 540 27,100 -950 Descending Memphis Center
Sat 03:41:28 PM 34.3167 -90.1786 280° West 474 545 26,000 -1,008 Descending Memphis Center
Sat 03:42:28 PM 34.3356 -90.3194 279° West 474 545 25,100 -900 Descending Memphis Center
Sat 03:43:28 PM 34.3564 -90.4753 279° West 474 545 24,200 -800 Descending Memphis Center
Sat 03:44:28 PM 34.3875 -90.6214 285° West 462 532 23,500 -1,200 Descending Memphis Center
Sat 03:45:28 PM 34.4161 -90.7700 283° West 457 526 21,800 -2,200 Descending Memphis Center
Sat 03:46:28 PM 34.4450 -90.9139 284° West 441 507 19,100 -2,479 Descending Memphis Center
Sat 03:47:29 PM 34.4733 -91.0600 283° West 426 490 16,800 -2,800 Descending Memphis Center
Sat 03:48:28 PM 34.4978 -91.1836 284° West 400 460 13,500 -3,351 Descending Memphis Center
Sat 03:48:46 PM 34.5036 -91.2139 283° West 389 448 12,500 -2,571 Descending Memphis Center
Sat 03:49:10 PM 34.5158 -91.2669 286° West 388 447 11,700 -2,000 Descending Memphis Center
Sat 03:49:28 PM 34.5239 -91.3075 284° West 392 451 11,100 -1,475 Descending Memphis Center
Sat 03:50:11 PM 34.5419 -91.3858 286° West 345 397 10,200 -1,100 Descending Memphis Center
Sat 03:50:28 PM 34.5522 -91.4189 291° West 364 419 10,000 -984 Descending Memphis Center
Sat 03:51:12 PM 34.5619 -91.4919 279° West 286 329 9,200 -1,385 Descending Memphis Center
Sat 03:52:12 PM 34.5800 -91.5856 283° West 289 333 7,600 -1,658 Descending Memphis Center
Sat 03:52:28 PM 34.5881 -91.6083 293° West 295 339 7,100 -1,579 Descending Memphis Center
Sat 03:53:28 PM 34.6036 -91.7019 281° West 285 328 5,600 -1,091 Descending Memphis Center
Sat 03:54:29 PM 34.6194 -91.7931 282° West 285 328 4,900 -589 Descending Memphis Center
Sat 03:55:20 PM 34.6247 -91.8739 275° West 280 322 4,500 -305 Descending Memphis Center
Sat 03:55:28 PM 34.6289 -91.8689 45° Northeast 280 322 4,600 -1,279 Climbing Memphis Center
Sat 03:56:21 PM 34.6381 -91.9675 276° West 274 315 3,200 -1,300 Descending Memphis Center
Sat 03:56:28 PM 34.6425 -91.9653 22° Northeast 274 315 3,300 -200 Climbing Memphis Center
Sat 03:57:21 PM 34.6453 -92.0536 272° West 262 302 3,000 -300 Descending Memphis Center
Sat 03:57:28 PM 34.6475 -92.0561 317° Northwest 274 315 3,000 -787 Level Memphis Center
Sat 03:58:22 PM 34.6442 -92.1419 267° West 250 288 2,200 -700 Descending Memphis Center
Sat 03:58:28 PM 34.6461 -92.1419 360° North 269 310 2,300 -400 Climbing Memphis Center
Sat 03:59:22 PM 34.6431 -92.2150 267° West 208 239 1,800 -500 Descending Memphis Center
Sat 03:59:28 PM 34.6450 -92.2175 313° West 252 290 1,800 -295 Level Memphis Center
Sat 04:00:23 PM 34.6692 -92.2761 297° West 178 205 1,500 -200 Descending Memphis Center
Sat 04:00:28 PM 34.6694 -92.2736 82° East 233 268 1,600 -545 Climbing Memphis Center
Sat 04:01:29 PM 34.7028 -92.2694 North 152 175 900 -689 Descending Memphis Center

Login

Don't have an account? Register now (free) for customized features, flight alerts, and more!